Time;durP1;ratioP1;P1;durP2;ratioP2;P2;SDS_P1;SDS_P2;PMS_P1;PMS_P2;Temp;Humidity;BMP_temperature;BMP_pressure;BME280_temperature;BME280_humidity;BME280_pressure;Samples;Min_cycle;Max_cycle;Signal;HPM_P1;HPM_P2
2024/02/29 00:02:02;;;;;;;27.03;9.03;;;;;;;5.41;100.00;96519.88;5057421;28;20218;-69
2024/02/29 00:04:29;;;;;;;25.97;10.40;;;;;;;5.37;100.00;96513.28;5056204;28;20756;-69
2024/02/29 00:06:55;;;;;;;32.33;9.63;;;;;;;5.41;100.00;96520.72;5056668;28;20308;-71
2024/02/29 00:09:23;;;;;;;27.90;9.73;;;;;;;5.52;100.00;96526.63;5057052;28;20685;-70
2024/02/29 00:11:51;;;;;;;27.83;9.87;;;;;;;5.14;100.00;96538.88;5057179;28;20764;-69
2024/02/29 00:14:18;;;;;;;25.10;10.03;;;;;;;5.14;100.00;96533.66;5055841;28;20459;-69
2024/02/29 00:16:44;;;;;;;23.23;8.90;;;;;;;5.26;100.00;96532.53;5056459;28;20216;-69
2024/02/29 00:19:11;;;;;;;29.00;11.00;;;;;;;5.49;100.00;96526.06;5057691;28;20216;-69
2024/02/29 00:21:38;;;;;;;29.70;9.37;;;;;;;5.37;100.00;96532.38;5056349;28;20211;-70
2024/02/29 00:24:05;;;;;;;26.73;9.07;;;;;;;5.30;100.00;96538.31;5055897;28;20231;-69
2024/02/29 00:26:32;;;;;;;26.93;9.90;;;;;;;5.45;100.00;96530.72;5057599;28;20675;-69
2024/02/29 00:29:01;;;;;;;28.87;9.23;;;;;;;5.32;100.00;96537.22;5056678;28;20210;-69
2024/02/29 00:31:27;;;;;;;27.50;9.87;;;;;;;5.30;100.00;96533.09;5056039;28;20212;-69
2024/02/29 00:33:54;;;;;;;28.93;9.67;;;;;;;5.17;100.00;96527.31;5055483;28;20235;-71
2024/02/29 00:36:20;;;;;;;29.83;9.83;;;;;;;4.98;100.00;96528.13;5057102;28;20208;-68
2024/02/29 00:38:46;;;;;;;29.23;9.87;;;;;;;5.02;100.00;96513.81;5056238;28;20196;-68
2024/02/29 00:41:13;;;;;;;32.53;10.53;;;;;;;4.98;100.00;96511.63;5056578;28;20218;-68
2024/02/29 00:43:41;;;;;;;30.67;10.47;;;;;;;5.31;100.00;96514.66;5055862;28;20263;-68
2024/02/29 00:46:08;;;;;;;35.60;9.77;;;;;;;4.93;100.00;96511.22;5055966;28;20204;-72
2024/02/29 00:48:34;;;;;;;29.97;9.93;;;;;;;5.04;100.00;96506.69;5056194;28;20212;-72
2024/02/29 00:51:01;;;;;;;29.63;9.20;;;;;;;5.11;100.00;96501.75;5056693;28;20223;-71
2024/02/29 00:53:27;;;;;;;28.13;9.37;;;;;;;5.12;100.00;96506.81;5055008;28;20227;-71
2024/02/29 00:55:54;;;;;;;26.27;10.00;;;;;;;5.00;100.00;96501.88;5056588;28;20208;-73
2024/02/29 00:58:21;;;;;;;26.87;10.00;;;;;;;4.97;100.00;96500.34;5056075;28;20213;-71
2024/02/29 01:00:49;;;;;;;23.17;8.70;;;;;;;5.08;100.00;96502.03;5055550;28;20201;-73
2024/02/29 01:03:15;;;;;;;28.33;9.07;;;;;;;4.91;100.00;96500.91;5054861;28;20567;-72
2024/02/29 01:05:42;;;;;;;23.03;8.23;;;;;;;4.76;100.00;96498.00;5056440;28;20769;-70
2024/02/29 01:08:08;;;;;;;23.90;8.77;;;;;;;4.70;100.00;96495.91;5055664;28;20655;-72
2024/02/29 01:10:35;;;;;;;22.60;8.77;;;;;;;4.78;100.00;96493.47;5055770;28;20211;-73
2024/02/29 01:13:01;;;;;;;27.17;7.90;;;;;;;4.60;100.00;96485.47;5055392;28;20232;-73
2024/02/29 01:15:28;;;;;;;28.83;9.13;;;;;;;4.69;100.00;96494.28;5055540;28;20457;-70
2024/02/29 01:17:56;;;;;;;21.70;9.17;;;;;;;4.88;100.00;96492.53;5056197;28;20205;-72
2024/02/29 01:20:22;;;;;;;22.07;8.33;;;;;;;4.71;100.00;96487.13;5055190;28;20203;-71
2024/02/29 01:22:49;;;;;;;26.93;8.87;;;;;;;4.72;100.00;96486.19;5055194;28;20224;-73
2024/02/29 01:25:15;;;;;;;26.93;9.60;;;;;;;4.36;100.00;96481.59;5055511;28;20228;-71
2024/02/29 01:27:42;;;;;;;29.67;9.23;;;;;;;4.47;100.00;96494.53;5055675;28;20692;-71
2024/02/29 01:30:09;;;;;;;26.80;8.63;;;;;;;4.68;100.00;96484.81;5055865;28;20204;-71
2024/02/29 01:32:36;;;;;;;24.47;8.03;;;;;;;4.51;100.00;96491.50;5054171;28;20223;-72
2024/02/29 01:35:04;;;;;;;28.80;8.23;;;;;;;4.42;100.00;96483.66;5055833;28;20302;-71
2024/02/29 01:37:30;;;;;;;22.17;8.43;;;;;;;4.25;100.00;96489.50;5055853;28;20707;-71
2024/02/29 01:39:57;;;;;;;22.47;8.83;;;;;;;4.41;100.00;96485.44;5055155;28;20359;-70
2024/02/29 01:42:24;;;;;;;29.30;9.43;;;;;;;4.34;100.00;96475.66;5055723;28;20724;-68
2024/02/29 01:44:54;;;;;;;21.23;7.70;;;;;;;4.16;100.00;96481.66;5054493;28;20228;-69
2024/02/29 01:47:20;;;;;;;27.10;9.60;;;;;;;4.02;100.00;96472.44;5054925;28;20617;-68
2024/02/29 01:49:48;;;;;;;22.30;8.90;;;;;;;4.22;100.00;96473.31;5055078;28;20220;-69
2024/02/29 01:52:17;;;;;;;23.83;8.83;;;;;;;4.41;100.00;96482.00;5056086;28;20231;-68
2024/02/29 01:54:43;;;;;;;20.93;8.20;;;;;;;4.22;100.00;96468.09;5054857;28;20196;-70
2024/02/29 01:57:10;;;;;;;28.13;8.00;;;;;;;4.25;100.00;96466.03;5055662;28;20827;-68
2024/02/29 01:59:38;;;;;;;27.63;9.20;;;;;;;4.16;100.00;96468.63;5055755;28;20195;-70
2024/02/29 02:02:05;;;;;;;28.93;10.07;;;;;;;4.27;100.00;96472.75;5055749;28;20204;-69
2024/02/29 02:04:32;;;;;;;23.73;8.63;;;;;;;4.03;100.00;96473.25;5054465;28;20228;-69
2024/02/29 02:06:59;;;;;;;24.90;8.63;;;;;;;4.13;100.00;96467.09;5055075;28;20874;-70
2024/02/29 02:09:26;;;;;;;22.47;7.33;;;;;;;4.37;100.00;96459.75;5055241;28;20669;-68
2024/02/29 02:11:53;;;;;;;26.00;8.73;;;;;;;4.08;100.00;96471.06;5054560;28;20211;-68
2024/02/29 02:14:19;;;;;;;27.63;8.47;;;;;;;3.95;100.00;96465.28;5054521;28;20204;-68
2024/02/29 02:16:46;;;;;;;23.80;7.63;;;;;;;4.06;100.00;96460.78;5055375;28;20294;-69
2024/02/29 02:19:13;;;;;;;27.70;9.13;;;;;;;4.08;100.00;96455.44;5055345;28;20609;-67
2024/02/29 02:21:41;;;;;;;29.03;8.90;;;;;;;4.26;100.00;96457.25;5054382;28;20658;-70
2024/02/29 02:24:08;;;;;;;23.83;7.87;;;;;;;4.15;100.00;96452.16;5053975;28;20701;-69
2024/02/29 02:26:35;;;;;;;29.20;9.20;;;;;;;4.06;100.00;96450.34;5055106;28;20203;-71
2024/02/29 02:29:03;;;;;;;24.83;8.53;;;;;;;4.21;100.00;96446.41;5055109;28;20553;-68
2024/02/29 02:31:29;;;;;;;18.47;7.77;;;;;;;3.93;100.00;96439.31;5054536;28;20226;-70
2024/02/29 02:33:56;;;;;;;30.23;8.33;;;;;;;3.89;100.00;96435.31;5054216;28;20598;-68
2024/02/29 02:36:23;;;;;;;34.90;9.77;;;;;;;3.84;100.00;96429.66;5054558;28;20218;-71
2024/02/29 02:38:51;;;;;;;29.30;10.20;;;;;;;4.15;100.00;96420.88;5054444;28;20965;-68
2024/02/29 02:41:17;;;;;;;26.20;9.27;;;;;;;4.07;100.00;96425.09;5055063;28;20239;-68
2024/02/29 02:43:46;;;;;;;24.20;8.43;;;;;;;4.12;100.00;96426.34;5053845;28;20231;-68
2024/02/29 02:46:13;;;;;;;27.53;9.23;;;;;;;4.12;100.00;96418.50;5054463;28;21112;-71
2024/02/29 02:48:39;;;;;;;26.13;9.40;;;;;;;3.99;100.00;96410.13;5055429;28;20211;-71
2024/02/29 02:51:05;;;;;;;27.63;8.37;;;;;;;3.95;100.00;96415.75;5054204;28;20212;-68
2024/02/29 02:53:32;;;;;;;23.73;7.93;;;;;;;3.95;100.00;96407.91;5053585;28;20223;-71
2024/02/29 02:56:00;;;;;;;23.07;8.47;;;;;;;4.00;100.00;96411.78;5056655;28;20577;-68
2024/02/29 02:58:26;;;;;;;17.73;7.40;;;;;;;3.90;100.00;96404.88;5059699;28;20683;-70
2024/02/29 03:00:53;;;;;;;22.40;8.00;;;;;;;3.86;100.00;96404.31;5058351;28;20227;-69
2024/02/29 03:03:19;;;;;;;25.67;8.60;;;;;;;3.91;100.00;96401.31;5058109;28;20231;-68
2024/02/29 03:05:46;;;;;;;19.13;7.27;;;;;;;3.95;100.00;96398.31;5058285;28;20222;-70
2024/02/29 03:08:12;;;;;;;25.97;8.03;;;;;;;3.92;100.00;96395.97;5057893;28;20212;-69
2024/02/29 03:10:39;;;;;;;24.63;8.10;;;;;;;3.76;100.00;96395.63;5058330;28;20199;-68
2024/02/29 03:13:07;;;;;;;21.47;9.37;;;;;;;3.90;100.00;96389.25;5057847;28;20895;-68
2024/02/29 03:15:34;;;;;;;21.03;7.67;;;;;;;3.78;100.00;96388.53;5057680;28;20200;-69
2024/02/29 03:18:00;;;;;;;23.40;7.50;;;;;;;3.77;100.00;96383.44;5058757;28;20282;-70
2024/02/29 03:20:27;;;;;;;19.20;7.23;;;;;;;3.74;100.00;96381.94;5057683;28;20199;-68
2024/02/29 03:22:53;;;;;;;16.47;7.23;;;;;;;3.82;100.00;96371.66;5057773;28;20613;-69
2024/02/29 03:25:20;;;;;;;19.43;7.23;;;;;;;3.74;100.00;96368.91;5058199;28;20231;-70
2024/02/29 03:27:46;;;;;;;18.73;6.60;;;;;;;3.68;100.00;96364.22;5058061;28;20454;-68
2024/02/29 03:30:15;;;;;;;19.60;7.57;;;;;;;3.80;100.00;96357.91;5056037;28;20211;-68
2024/02/29 03:32:42;;;;;;;21.93;7.37;;;;;;;3.64;100.00;96357.63;5056742;28;20222;-68
2024/02/29 03:35:09;;;;;;;24.53;7.63;;;;;;;3.76;100.00;96348.72;5058058;28;20203;-68
2024/02/29 03:37:35;;;;;;;28.37;8.30;;;;;;;3.76;100.00;96359.16;5058158;28;20413;-69
2024/02/29 03:40:02;;;;;;;21.60;8.13;;;;;;;3.81;100.00;96353.56;5057351;28;20702;-68
2024/02/29 03:42:28;;;;;;;34.50;9.60;;;;;;;3.91;100.00;96357.81;5057839;28;20739;-71
2024/02/29 03:44:55;;;;;;;19.23;7.43;;;;;;;3.92;100.00;96351.66;5056561;28;20231;-70
2024/02/29 03:47:23;;;;;;;25.37;8.37;;;;;;;3.92;100.00;96341.22;5057798;28;20214;-68
2024/02/29 03:49:49;;;;;;;35.00;8.40;;;;;;;3.88;100.00;96352.03;5056654;28;20218;-70
2024/02/29 03:52:16;;;;;;;31.37;9.10;;;;;;;3.87;100.00;96353.84;5058172;28;20224;-68
2024/02/29 03:54:44;;;;;;;26.73;7.80;;;;;;;3.86;100.00;96346.97;5056754;28;20199;-68
2024/02/29 03:57:11;;;;;;;31.40;10.23;;;;;;;3.87;100.00;96351.25;5057583;28;20206;-68
2024/02/29 03:59:37;;;;;;;39.77;11.53;;;;;;;3.81;100.00;96351.75;5058075;28;20203;-68
2024/02/29 04:02:04;;;;;;;27.33;10.17;;;;;;;3.78;100.00;96351.19;5057783;28;20207;-70
2024/02/29 04:04:32;;;;;;;35.83;9.27;;;;;;;3.83;100.00;96349.84;5056005;28;20252;-68
2024/02/29 04:06:58;;;;;;;27.60;9.90;;;;;;;3.82;100.00;96350.00;5057071;28;20852;-68
2024/02/29 04:09:25;;;;;;;30.20;10.50;;;;;;;3.84;100.00;96346.28;5056697;28;20214;-70
2024/02/29 04:11:52;;;;;;;33.70;10.93;;;;;;;3.86;100.00;96331.34;5057213;28;20591;-71
2024/02/29 04:14:18;;;;;;;38.27;12.03;;;;;;;3.83;100.00;96336.81;5056519;28;20221;-69
2024/02/29 04:16:45;;;;;;;30.87;11.47;;;;;;;3.74;100.00;96337.63;5057983;28;20206;-68
2024/02/29 04:19:11;;;;;;;34.33;10.27;;;;;;;3.76;100.00;96338.31;5057254;28;20212;-69
2024/02/29 04:21:43;;;;;;;26.67;9.93;;;;;;;3.97;100.00;96339.06;5056681;28;20200;-68
2024/02/29 04:24:09;;;;;;;33.87;9.37;;;;;;;3.61;100.00;96343.22;5056221;28;20223;-69
2024/02/29 04:26:36;;;;;;;28.97;10.37;;;;;;;3.67;100.00;96336.50;5056665;28;20226;-69
2024/02/29 04:29:02;;;;;;;31.27;10.33;;;;;;;3.67;100.00;96330.47;5057774;28;20207;-69
2024/02/29 04:31:29;;;;;;;26.93;8.93;;;;;;;3.64;100.00;96330.75;5057122;28;20219;-70
2024/02/29 04:33:54;;;;;;;21.93;8.13;;;;;;;3.65;100.00;96328.00;5056589;28;20230;-70
2024/02/29 04:36:21;;;;;;;28.07;10.07;;;;;;;3.55;100.00;96330.72;5057058;28;20208;-68
2024/02/29 04:38:49;;;;;;;28.57;9.30;;;;;;;3.74;100.00;96332.41;5057166;28;20210;-68
2024/02/29 04:41:16;;;;;;;23.50;8.83;;;;;;;3.68;100.00;96332.94;5056974;28;20739;-69
2024/02/29 04:43:43;;;;;;;26.83;9.70;;;;;;;3.64;100.00;96331.56;5056399;28;20217;-68
2024/02/29 04:46:09;;;;;;;28.27;10.00;;;;;;;3.55;100.00;96335.91;5056683;28;20226;-68
2024/02/29 04:48:36;;;;;;;27.27;9.63;;;;;;;3.59;100.00;96329.47;5057037;28;20216;-68
2024/02/29 04:51:04;;;;;;;25.67;9.73;;;;;;;3.61;100.00;96333.59;5056965;28;20219;-69
2024/02/29 04:53:31;;;;;;;33.67;9.90;;;;;;;3.53;100.00;96332.63;5055928;28;20872;-68
2024/02/29 04:55:59;;;;;;;19.13;7.80;;;;;;;3.59;100.00;96327.72;5056618;28;20206;-69
2024/02/29 04:58:27;;;;;;;22.67;8.47;;;;;;;3.38;100.00;96331.34;5057356;28;20266;-67
2024/02/29 05:00:53;;;;;;;22.73;8.87;;;;;;;3.23;100.00;96324.81;5055937;28;20287;-69
2024/02/29 05:03:21;;;;;;;21.97;9.03;;;;;;;3.40;100.00;96332.00;5056246;28;20224;-68
2024/02/29 05:05:47;;;;;;;29.23;9.30;;;;;;;3.44;100.00;96323.81;5056467;28;20218;-69
2024/02/29 05:08:14;;;;;;;27.97;10.53;;;;;;;3.49;100.00;96331.22;5056324;28;20622;-68
2024/02/29 05:10:40;;;;;;;29.40;10.43;;;;;;;3.51;100.00;96332.75;5056201;28;20201;-68
2024/02/29 05:13:07;;;;;;;27.63;9.77;;;;;;;3.75;100.00;96331.44;5056831;28;20579;-69
2024/02/29 05:15:35;;;;;;;21.90;8.57;;;;;;;3.54;100.00;96337.72;5056103;28;20197;-71
2024/02/29 05:18:02;;;;;;;26.17;9.23;;;;;;;3.55;100.00;96331.50;5056385;28;20212;-71
2024/02/29 05:20:29;;;;;;;23.10;9.40;;;;;;;3.63;100.00;96327.31;5057171;28;20206;-70
2024/02/29 05:22:55;;;;;;;24.40;8.40;;;;;;;3.55;100.00;96326.31;5055436;28;20859;-70
2024/02/29 05:25:22;;;;;;;24.27;8.47;;;;;;;3.58;100.00;96323.47;5055314;28;20225;-72
2024/02/29 05:27:48;;;;;;;22.73;8.63;;;;;;;3.61;100.00;96317.97;5056808;28;20202;-70
2024/02/29 05:30:17;;;;;;;28.30;9.70;;;;;;;3.78;100.00;96322.53;5056539;28;20807;-69
2024/02/29 05:32:43;;;;;;;25.37;9.03;;;;;;;3.59;100.00;96319.06;5054858;28;20227;-70
2024/02/29 05:35:10;;;;;;;24.23;9.10;;;;;;;3.67;100.00;96309.63;5056526;28;20701;-71
2024/02/29 05:37:36;;;;;;;21.70;8.33;;;;;;;3.58;100.00;96314.78;5056171;28;20205;-70
2024/02/29 05:40:05;;;;;;;21.23;8.13;;;;;;;3.67;100.00;96315.66;5056398;28;20243;-71
2024/02/29 05:42:32;;;;;;;26.30;9.13;;;;;;;3.54;100.00;96313.41;5055281;28;20233;-72
2024/02/29 05:44:58;;;;;;;19.37;8.87;;;;;;;3.59;100.00;96312.09;5055484;28;20227;-72
2024/02/29 05:47:26;;;;;;;19.80;8.77;;;;;;;3.72;100.00;96313.47;5056356;28;20209;-71
2024/02/29 05:49:53;;;;;;;19.70;8.70;;;;;;;3.64;100.00;96310.72;5055773;28;21073;-72
2024/02/29 05:52:19;;;;;;;17.03;7.07;;;;;;;3.68;100.00;96317.31;5056132;28;20221;-70
2024/02/29 05:54:46;;;;;;;19.07;7.43;;;;;;;3.56;100.00;96306.31;5055016;28;20861;-70
2024/02/29 05:57:13;;;;;;;20.70;9.70;;;;;;;3.74;100.00;96301.16;5055605;28;20216;-72
2024/02/29 05:59:39;;;;;;;17.30;7.67;;;;;;;3.76;100.00;96307.03;5055430;28;20198;-69
2024/02/29 06:04:40;;;;;;;20.47;7.00;;;;;;;4.06;100.00;96301.75;5052679;27;21163;-69
2024/02/29 06:07:06;;;;;;;19.83;7.93;;;;;;;3.89;100.00;96305.00;5053406;28;20202;-71
2024/02/29 06:09:35;;;;;;;20.77;7.93;;;;;;;3.91;100.00;96300.47;5053481;28;20212;-71
2024/02/29 06:12:02;;;;;;;19.17;7.23;;;;;;;3.94;100.00;96302.81;5053645;28;20207;-70
2024/02/29 06:14:28;;;;;;;17.83;7.67;;;;;;;4.01;100.00;96298.72;5052243;28;20232;-70
2024/02/29 06:16:55;;;;;;;20.77;7.10;;;;;;;3.98;100.00;96308.59;5052616;28;20254;-70
2024/02/29 06:19:21;;;;;;;18.70;7.30;;;;;;;4.00;100.00;96310.09;5053150;28;20214;-71
2024/02/29 06:21:49;;;;;;;17.17;7.03;;;;;;;4.18;100.00;96300.63;5052515;28;20204;-71
2024/02/29 06:24:18;;;;;;;16.07;7.13;;;;;;;4.17;100.00;96298.19;5051773;28;20724;-69
2024/02/29 06:26:45;;;;;;;19.40;7.07;;;;;;;4.16;100.00;96302.53;5052752;28;20199;-69
2024/02/29 06:29:12;;;;;;;19.03;7.63;;;;;;;4.25;100.00;96302.56;5053054;28;20203;-69
2024/02/29 06:31:38;;;;;;;20.83;8.60;;;;;;;4.23;100.00;96299.25;5052684;28;20234;-69
2024/02/29 06:34:05;;;;;;;19.40;7.37;;;;;;;4.13;100.00;96302.84;5053486;28;21572;-69
2024/02/29 06:36:31;;;;;;;18.23;7.23;;;;;;;4.03;100.00;96296.78;5053012;28;20216;-70
2024/02/29 06:38:59;;;;;;;18.53;7.83;;;;;;;4.35;100.00;96299.94;5052110;28;20242;-70
2024/02/29 06:41:25;;;;;;;17.83;8.17;;;;;;;4.29;100.00;96295.31;5052459;28;20741;-69
2024/02/29 06:43:52;;;;;;;18.30;7.77;;;;;;;4.39;100.00;96294.31;5051589;28;20220;-70
2024/02/29 06:46:18;;;;;;;19.50;7.53;;;;;;;4.44;100.00;96302.56;5052419;28;20208;-70
2024/02/29 06:48:45;;;;;;;18.37;7.83;;;;;;;4.50;100.00;96299.38;5052479;28;20207;-70
2024/02/29 06:51:11;;;;;;;17.93;7.03;;;;;;;4.54;100.00;96302.53;5053354;28;20967;-70
2024/02/29 06:53:38;;;;;;;18.93;7.33;;;;;;;4.59;100.00;96297.72;5050964;28;20236;-70
2024/02/29 06:56:06;;;;;;;14.60;6.63;;;;;;;4.90;100.00;96302.59;5052865;28;20207;-70
2024/02/29 06:58:34;;;;;;;18.23;6.20;;;;;;;5.70;100.00;96286.19;5052173;28;20330;-70
2024/02/29 07:01:01;;;;;;;30.85;11.32;;;;;;;6.11;100.00;96286.53;5051950;28;20466;-70
2024/02/29 07:03:28;;;;;;;19.00;7.97;;;;;;;5.96;100.00;96277.53;5050873;28;20239;-70
2024/02/29 07:05:55;;;;;;;19.10;7.37;;;;;;;5.71;100.00;96277.38;5051671;28;20219;-70
2024/02/29 07:08:22;;;;;;;23.93;8.70;;;;;;;5.56;100.00;96276.22;5052475;28;20239;-70
2024/02/29 07:10:49;;;;;;;25.87;8.20;;;;;;;5.62;100.00;96278.25;5051327;28;20197;-70
2024/02/29 07:13:17;;;;;;;18.27;7.60;;;;;;;5.48;100.00;96276.94;5051224;28;20236;-70
2024/02/29 07:15:43;;;;;;;17.33;7.20;;;;;;;5.27;100.00;96287.78;5040344;28;20197;-70
2024/02/29 07:18:11;;;;;;;17.10;6.87;;;;;;;5.21;100.00;96277.94;5039197;28;20201;-71
2024/02/29 07:20:37;;;;;;;25.30;7.97;;;;;;;5.23;100.00;96271.59;5038078;28;20218;-73
2024/02/29 07:23:04;;;;;;;21.37;7.67;;;;;;;5.33;100.00;96261.09;5038118;28;20217;-73
2024/02/29 07:25:31;;;;;;;20.90;7.77;;;;;;;5.37;100.00;96267.66;5037875;28;20906;-72
2024/02/29 07:27:58;;;;;;;20.83;7.63;;;;;;;5.53;100.00;96259.03;5037941;28;20205;-69
2024/02/29 07:30:27;;;;;;;16.30;6.77;;;;;;;5.57;100.00;96257.78;5037309;28;20606;-72
2024/02/29 07:32:53;;;;;;;16.90;7.10;;;;;;;5.44;100.00;96254.69;5036374;28;20232;-72
2024/02/29 07:35:20;;;;;;;18.77;7.03;;;;;;;5.39;100.00;96250.06;5035774;28;20224;-72
2024/02/29 07:37:46;;;;;;;18.97;8.00;;;;;;;5.35;100.00;96251.34;5036789;28;20203;-71
2024/02/29 07:40:13;;;;;;;22.27;8.43;;;;;;;5.50;100.00;96243.66;5037128;28;20556;-71
2024/02/29 07:42:40;;;;;;;20.93;8.13;;;;;;;5.43;100.00;96251.41;5036147;28;20255;-69
2024/02/29 07:45:07;;;;;;;19.40;7.60;;;;;;;5.64;100.00;96244.97;5037551;28;20193;-73
2024/02/29 07:47:35;;;;;;;23.63;9.27;;;;;;;5.83;100.00;96231.78;5037429;28;20205;-70
2024/02/29 07:50:03;;;;;;;24.63;9.07;;;;;;;5.65;100.00;96236.97;5036963;28;20415;-70
2024/02/29 07:52:29;;;;;;;25.03;8.40;;;;;;;5.49;100.00;96239.41;5037115;28;20296;-73
2024/02/29 07:54:56;;;;;;;22.67;9.43;;;;;;;5.72;100.00;96226.75;5037334;28;20249;-70
2024/02/29 07:57:22;;;;;;;23.97;8.90;;;;;;;5.79;100.00;96223.44;5037521;28;20205;-70
2024/02/29 07:59:49;;;;;;;22.63;9.57;;;;;;;6.00;100.00;96220.53;5036879;28;20223;-71
2024/02/29 08:02:15;;;;;;;26.50;9.43;;;;;;;5.98;100.00;96232.91;5037437;28;20209;-70
2024/02/29 08:04:43;;;;;;;26.13;9.70;;;;;;;6.18;100.00;96222.97;5036370;28;20206;-73
2024/02/29 08:07:11;;;;;;;26.10;8.93;;;;;;;6.12;100.00;96223.59;5036342;28;20208;-74
2024/02/29 08:09:38;;;;;;;31.10;9.90;;;;;;;6.33;100.00;96223.28;5037025;28;20250;-73
2024/02/29 08:12:05;;;;;;;31.07;11.37;;;;;;;6.48;100.00;96209.47;5036218;28;20663;-71
2024/02/29 08:14:32;;;;;;;30.90;10.47;;;;;;;6.61;100.00;96217.75;5036327;28;20231;-70
2024/02/29 08:16:58;;;;;;;28.70;10.40;;;;;;;6.76;100.00;96221.47;5036406;28;20467;-70
2024/02/29 08:19:25;;;;;;;33.53;10.80;;;;;;;6.97;100.00;96208.81;5037673;28;20201;-70
2024/02/29 08:21:53;;;;;;;38.23;11.97;;;;;;;7.12;100.00;96207.25;5035376;28;20201;-71
2024/02/29 08:24:19;;;;;;;35.23;11.73;;;;;;;6.98;100.00;96205.22;5036637;28;21182;-73
2024/02/29 08:26:46;;;;;;;31.17;10.50;;;;;;;6.95;100.00;96213.38;5035750;28;20204;-70
2024/02/29 08:29:14;;;;;;;36.80;10.67;;;;;;;6.98;100.00;96199.97;5036805;28;20384;-72
2024/02/29 08:31:43;;;;;;;31.87;11.80;;;;;;;7.20;100.00;96200.22;5036408;28;20760;-71
2024/02/29 08:34:09;;;;;;;26.83;10.37;;;;;;;7.20;100.00;96194.19;5036393;28;20221;-70
2024/02/29 08:36:36;;;;;;;32.53;11.23;;;;;;;7.22;100.00;96189.59;5036448;28;20210;-72
2024/02/29 08:39:04;;;;;;;38.20;11.67;;;;;;;7.35;100.00;96196.03;5036668;28;20201;-70
2024/02/29 08:41:30;;;;;;;35.10;12.00;;;;;;;7.33;100.00;96197.97;5036644;28;20205;-71
2024/02/29 08:43:57;;;;;;;36.13;13.07;;;;;;;7.33;100.00;96192.75;5036035;28;20593;-70
2024/02/29 08:46:23;;;;;;;37.80;11.80;;;;;;;7.43;100.00;96186.41;5036379;28;20365;-73
2024/02/29 08:48:50;;;;;;;34.23;11.03;;;;;;;7.48;100.00;96178.88;5036174;28;20197;-73
2024/02/29 08:51:16;;;;;;;33.30;11.37;;;;;;;7.26;100.00;96179.44;5036055;28;20201;-72
2024/02/29 08:53:43;;;;;;;31.87;10.77;;;;;;;7.27;100.00;96175.84;5035106;28;20236;-73
2024/02/29 08:56:10;;;;;;;31.83;10.60;;;;;;;7.46;100.00;96172.97;5037014;28;20212;-71
2024/02/29 08:58:37;;;;;;;37.93;12.93;;;;;;;7.45;100.00;96165.28;5035666;28;20579;-71
2024/02/29 09:01:04;;;;;;;29.90;10.40;;;;;;;7.26;100.00;96163.72;5035672;28;20208;-73
2024/02/29 09:03:30;;;;;;;31.30;10.67;;;;;;;7.17;100.00;96163.06;5035263;28;20229;-70
2024/02/29 09:05:57;;;;;;;29.90;11.03;;;;;;;6.91;100.00;96157.03;5037147;28;20205;-72
2024/02/29 09:08:23;;;;;;;33.87;10.43;;;;;;;7.30;100.00;96153.75;5035422;28;20452;-73
2024/02/29 09:10:50;;;;;;;37.93;12.30;;;;;;;7.54;100.00;96152.00;5036272;28;20557;-70
2024/02/29 09:13:18;;;;;;;31.33;10.30;;;;;;;7.60;100.00;96151.38;5035256;28;20223;-72
2024/02/29 09:15:44;;;;;;;37.67;11.83;;;;;;;7.40;100.00;96144.78;5036143;28;20207;-72
2024/02/29 09:18:11;;;;;;;35.57;11.60;;;;;;;7.60;100.00;96140.91;5035271;28;21064;-72
2024/02/29 09:20:37;;;;;;;39.83;11.47;;;;;;;7.65;100.00;96154.34;5035849;28;20208;-70
2024/02/29 09:23:04;;;;;;;33.27;12.87;;;;;;;7.71;100.00;96148.44;5034467;28;20225;-71
2024/02/29 09:25:30;;;;;;;38.17;11.50;;;;;;;7.72;100.00;96155.31;5035963;28;20201;-72
2024/02/29 09:27:57;;;;;;;39.20;12.50;;;;;;;7.56;100.00;96144.81;5035495;28;20208;-73
2024/02/29 09:30:26;;;;;;;34.30;11.93;;;;;;;7.65;100.00;96137.78;5035605;28;20587;-74
2024/02/29 09:32:53;;;;;;;35.13;11.67;;;;;;;7.60;100.00;96140.06;5034469;28;20317;-72
2024/02/29 09:35:20;;;;;;;41.80;12.20;;;;;;;7.40;100.00;96136.09;5035911;28;20221;-72
2024/02/29 09:37:46;;;;;;;33.77;11.83;;;;;;;7.46;100.00;96133.66;5034562;28;20794;-70
2024/02/29 09:40:15;;;;;;;32.20;12.20;;;;;;;7.83;100.00;96138.44;5035066;28;20680;-72
2024/02/29 09:42:44;;;;;;;32.53;10.17;;;;;;;8.08;100.00;96130.44;5034630;28;20229;-73
2024/02/29 09:45:12;;;;;;;38.13;12.17;;;;;;;7.58;100.00;96123.69;5035532;28;20302;-70
2024/02/29 09:47:41;;;;;;;39.67;13.57;;;;;;;7.95;100.00;96119.59;5035428;28;20470;-74
2024/02/29 09:50:09;;;;;;;28.97;10.37;;;;;;;8.12;100.00;96116.84;5035268;28;20205;-73
2024/02/29 09:52:37;;;;;;;39.03;13.00;;;;;;;8.02;100.00;96107.50;5035761;28;20231;-73
2024/02/29 09:55:05;;;;;;;40.07;13.47;;;;;;;8.11;100.00;96117.00;5035110;28;20228;-71
2024/02/29 09:57:32;;;;;;;40.10;12.77;;;;;;;8.17;100.00;96113.72;5035339;28;20283;-72
2024/02/29 10:00:00;;;;;;;36.27;12.63;;;;;;;8.11;100.00;96117.00;5035101;28;20209;-72
2024/02/29 10:02:27;;;;;;;37.37;11.57;;;;;;;8.30;100.00;96107.00;5035359;28;20394;-72
2024/02/29 10:04:55;;;;;;;33.63;12.03;;;;;;;8.43;100.00;96098.63;5034475;28;20595;-72
2024/02/29 10:07:21;;;;;;;38.80;12.30;;;;;;;8.29;100.00;96102.72;5035208;28;20562;-71
2024/02/29 10:09:48;;;;;;;40.30;12.93;;;;;;;8.67;100.00;96091.50;5034128;28;20213;-71
2024/02/29 10:12:17;;;;;;;31.80;11.17;;;;;;;8.57;100.00;96089.03;5035686;28;20208;-73
2024/02/29 10:14:44;;;;;;;37.27;11.73;;;;;;;8.22;100.00;96095.69;5033738;28;20225;-70
2024/02/29 10:17:11;;;;;;;32.47;11.00;;;;;;;8.20;100.00;96098.47;5035090;28;20205;-71
2024/02/29 10:19:38;;;;;;;36.60;11.30;;;;;;;8.43;100.00;96093.38;5035726;28;20292;-71
2024/02/29 10:22:06;;;;;;;37.30;12.27;;;;;;;8.78;100.00;96078.81;5035605;28;20201;-71
2024/02/29 10:24:33;;;;;;;33.30;10.83;;;;;;;8.66;100.00;96080.16;5033930;28;20299;-70
2024/02/29 10:27:01;;;;;;;32.73;10.93;;;;;;;8.83;100.00;96073.03;5034674;28;20635;-70
2024/02/29 10:29:29;;;;;;;29.37;9.13;;;;;;;9.00;100.00;96078.06;5035307;28;20216;-71
2024/02/29 10:31:57;;;;;;;33.20;11.90;;;;;;;8.89;100.00;96067.91;5034926;28;20215;-73
2024/02/29 10:34:23;;;;;;;34.30;10.97;;;;;;;9.04;100.00;96066.22;5034663;28;20634;-73
2024/02/29 10:36:50;;;;;;;37.43;11.90;;;;;;;9.01;100.00;96063.91;5033981;28;20205;-72
2024/02/29 10:39:18;;;;;;;33.23;11.90;;;;;;;9.36;100.00;96056.34;5034326;28;20225;-72
2024/02/29 10:41:49;;;;;;;39.03;12.77;;;;;;;9.28;100.00;96055.59;5034597;28;20209;-72
2024/02/29 10:44:20;;;;;;;38.40;12.00;;;;;;;9.59;100.00;96057.16;5034479;28;20290;-72
2024/02/29 10:46:48;;;;;;;30.73;9.77;;;;;;;9.35;100.00;96046.00;5034165;28;20205;-73
2024/02/29 10:49:26;;;;;;;35.27;11.30;;;;;;;9.53;100.00;96041.28;5035713;28;20201;-72
2024/02/29 10:52:03;;;;;;;29.77;11.37;;;;;;;9.70;100.00;96038.34;5038632;28;20205;-69
2024/02/29 10:54:36;;;;;;;35.20;10.63;;;;;;;9.92;100.00;96025.16;5037864;28;20248;-72
2024/02/29 10:57:08;;;;;;;31.27;10.60;;;;;;;9.75;100.00;96033.38;5038334;28;20201;-70
2024/02/29 10:59:38;;;;;;;31.27;10.90;;;;;;;10.00;100.00;96026.94;5039147;28;20213;-69
2024/02/29 11:02:05;;;;;;;29.67;11.63;;;;;;;9.76;100.00;96030.56;5037837;28;20212;-72
2024/02/29 11:04:32;;;;;;;32.37;10.87;;;;;;;9.60;100.00;96021.97;5037923;28;20212;-70
2024/02/29 11:06:59;;;;;;;35.70;12.23;;;;;;;9.93;100.00;96013.63;5038111;28;20208;-72
2024/02/29 11:09:26;;;;;;;26.20;9.63;;;;;;;10.28;100.00;96007.72;5038380;28;20485;-69
2024/02/29 11:12:09;;;;;;;26.10;9.83;;;;;;;10.66;100.00;96001.38;5038416;28;20234;-71
2024/02/29 11:14:36;;;;;;;34.47;10.97;;;;;;;10.39;100.00;95996.75;5037557;28;20282;-72
2024/02/29 11:17:04;;;;;;;30.00;10.17;;;;;;;10.91;100.00;95986.88;5038388;28;20205;-71
2024/02/29 11:19:31;;;;;;;35.27;11.23;;;;;;;10.70;100.00;95981.56;5038477;28;20205;-69
2024/02/29 11:22:08;;;;;;;27.23;9.30;;;;;;;11.09;100.00;95978.38;5036957;28;20854;-69
2024/02/29 11:24:36;;;;;;;26.60;10.23;;;;;;;11.03;100.00;95968.56;5037354;28;20462;-71